Time;durP1;ratioP1;P1;durP2;ratioP2;P2;SDS_P1;SDS_P2;PMS_P1;PMS_P2;Temp;Humidity;BMP_temperature;BMP_pressure;BME280_temperature;BME280_humidity;BME280_pressure;Samples;Min_cycle;Max_cycle;Signal;HPM_P1;HPM_P2
2022/04/01 00:02:07;;;;;;;65.27;31.87;;;;;;;5.02;100.00;96777.59;5001779;28;20197;-54
2022/04/01 00:04:35;;;;;;;64.23;31.23;;;;;;;5.03;100.00;96774.84;5000814;28;20212;-53
2022/04/01 00:07:02;;;;;;;62.97;31.70;;;;;;;4.96;100.00;96773.88;5001241;28;20208;-54
2022/04/01 00:09:29;;;;;;;59.47;31.13;;;;;;;4.98;100.00;96776.31;4999237;28;20238;-53
2022/04/01 00:11:55;;;;;;;63.50;30.73;;;;;;;5.02;100.00;96773.22;5001976;28;20199;-54
2022/04/01 00:14:23;;;;;;;60.43;30.63;;;;;;;4.99;100.00;96778.72;4998507;28;20692;-54
2022/04/01 00:16:51;;;;;;;59.33;29.70;;;;;;;5.00;100.00;96779.53;5001482;28;20197;-54
2022/04/01 00:19:18;;;;;;;55.50;30.40;;;;;;;5.02;100.00;96772.44;5000870;28;20220;-48
2022/04/01 00:21:46;;;;;;;61.27;29.23;;;;;;;5.01;100.00;96776.78;5005456;28;20197;-53
2022/04/01 00:24:12;;;;;;;60.10;30.07;;;;;;;4.99;100.00;96773.56;5003324;28;20716;-53
2022/04/01 00:26:39;;;;;;;55.90;30.07;;;;;;;5.02;100.00;96772.44;5009053;28;20210;-53
2022/04/01 00:29:15;;;;;;;53.40;29.00;;;;;;;4.96;100.00;96771.28;5004457;28;20225;-54
2022/04/01 00:31:42;;;;;;;57.23;29.00;;;;;;;4.93;100.00;96778.56;5004621;28;20193;-53
2022/04/01 00:34:18;;;;;;;57.77;28.10;;;;;;;4.98;100.00;96776.31;5001842;28;20212;-53
2022/04/01 00:36:47;;;;;;;53.27;27.67;;;;;;;4.98;100.00;96771.16;5003329;28;20200;-54
2022/04/01 00:39:16;;;;;;;54.03;26.83;;;;;;;5.01;100.00;96774.19;5004362;28;20193;-53
2022/04/01 00:41:45;;;;;;;56.17;27.87;;;;;;;4.95;100.00;96777.44;5001229;28;20191;-53
2022/04/01 00:44:14;;;;;;;55.57;27.37;;;;;;;4.92;100.00;96771.78;5001990;28;20216;-53
2022/04/01 00:49:14;;;;;;;53.23;26.20;;;;;;;4.91;100.00;96778.72;5010684;28;20221;-56
2022/04/01 00:51:43;;;;;;;47.47;24.90;;;;;;;4.85;100.00;96779.34;4998466;28;20190;-56
2022/04/01 00:54:12;;;;;;;54.47;24.90;;;;;;;4.81;100.00;96776.28;5000910;28;20641;-56
2022/04/01 00:56:40;;;;;;;49.53;25.00;;;;;;;4.81;100.00;96773.72;5001993;28;20184;-55
2022/04/01 00:59:08;;;;;;;47.77;23.63;;;;;;;4.82;100.00;96767.56;4998279;28;20231;-56
2022/04/01 01:01:36;;;;;;;48.37;24.40;;;;;;;4.82;100.00;96772.75;5001138;28;20198;-56
2022/04/01 01:04:04;;;;;;;49.87;24.07;;;;;;;4.83;100.00;96769.19;5003970;28;20194;-55
2022/04/01 01:06:33;;;;;;;47.73;24.67;;;;;;;4.81;100.00;96763.38;4997137;28;20201;-56
2022/04/01 01:09:00;;;;;;;49.73;24.43;;;;;;;4.84;100.00;96765.63;5002212;28;20209;-55
2022/04/01 01:11:29;;;;;;;48.00;24.63;;;;;;;4.86;100.00;96763.69;5000110;28;20195;-56
2022/04/01 01:13:56;;;;;;;49.40;25.50;;;;;;;4.80;100.00;96761.75;5002463;28;20236;-55
2022/04/01 01:16:23;;;;;;;45.97;24.10;;;;;;;4.82;100.00;96765.00;4992806;28;20281;-56
2022/04/01 01:19:00;;;;;;;50.67;24.10;;;;;;;4.80;100.00;96769.50;4996095;28;20300;-56
2022/04/01 01:21:28;;;;;;;48.10;23.20;;;;;;;4.76;100.00;96773.38;4995004;28;20205;-56
2022/04/01 01:24:00;;;;;;;52.17;24.87;;;;;;;4.75;100.00;96766.59;4990806;28;20217;-55
2022/04/01 01:26:30;;;;;;;52.00;23.97;;;;;;;4.75;100.00;96771.75;4986899;28;20209;-56
2022/04/01 01:28:58;;;;;;;44.07;23.37;;;;;;;4.78;100.00;96765.44;4991223;28;20681;-55
2022/04/01 01:31:25;;;;;;;45.53;23.70;;;;;;;4.67;100.00;96764.81;4991540;28;20197;-55
2022/04/01 01:33:54;;;;;;;46.50;23.17;;;;;;;4.69;100.00;96764.66;4991790;28;20724;-56
2022/04/01 01:36:22;;;;;;;43.67;23.70;;;;;;;4.72;100.00;96757.41;4991505;28;20232;-55
2022/04/01 01:38:49;;;;;;;44.77;23.77;;;;;;;4.66;100.00;96759.78;4993539;28;20308;-56
2022/04/01 01:41:16;;;;;;;54.17;25.87;;;;;;;4.73;100.00;96763.34;4993188;28;20220;-56
2022/04/01 01:43:44;;;;;;;42.77;23.27;;;;;;;4.68;100.00;96766.44;4992290;28;20252;-55
2022/04/01 01:46:11;;;;;;;46.37;24.33;;;;;;;4.64;100.00;96761.72;4993228;28;20181;-56
2022/04/01 01:48:38;;;;;;;52.33;24.43;;;;;;;4.66;100.00;96757.22;4991908;28;20221;-56
2022/04/01 01:56:36;;;;;;;48.43;24.37;;;;;;;4.66;100.00;96759.78;4991382;28;20796;-56
2022/04/01 01:59:06;;;;;;;47.43;24.03;;;;;;;4.66;100.00;96758.03;4992074;28;20213;-56
2022/04/01 02:01:33;;;;;;;49.57;23.97;;;;;;;4.60;100.00;96757.84;4991665;28;20685;-55
2022/04/01 02:04:01;;;;;;;41.10;23.30;;;;;;;4.64;100.00;96752.22;4988511;28;20190;-55
2022/04/01 02:06:28;;;;;;;45.50;24.37;;;;;;;4.55;100.00;96753.97;4991491;28;20293;-55
2022/04/01 02:08:55;;;;;;;48.83;25.37;;;;;;;4.56;100.00;96749.63;4991110;28;20580;-55
2022/04/01 02:11:23;;;;;;;54.57;25.47;;;;;;;4.56;100.00;96747.81;4992591;28;20192;-56
2022/04/01 02:13:52;;;;;;;48.20;24.87;;;;;;;4.54;100.00;96752.34;4991926;28;20204;-56
2022/04/01 02:16:22;;;;;;;47.33;25.37;;;;;;;4.60;100.00;96748.34;4991597;28;20198;-55
2022/04/01 02:18:49;;;;;;;50.07;27.47;;;;;;;4.63;100.00;96753.19;4991368;28;20237;-55
2022/04/01 02:21:17;;;;;;;48.97;28.57;;;;;;;4.62;100.00;96748.97;4991249;28;20660;-55
2022/04/01 02:23:45;;;;;;;53.80;30.47;;;;;;;4.60;100.00;96744.94;4991217;28;20201;-55
2022/04/01 02:26:15;;;;;;;55.10;31.87;;;;;;;4.55;100.00;96746.22;4991368;28;20193;-55
2022/04/01 02:28:43;;;;;;;54.50;31.47;;;;;;;4.42;100.00;96744.09;4991310;28;20237;-56
2022/04/01 02:31:14;;;;;;;53.50;31.50;;;;;;;4.39;100.00;96747.00;4990875;28;20613;-56
2022/04/01 02:34:23;;;;;;;55.07;31.30;;;;;;;4.32;100.00;96755.50;4950862;29;20195;-56
2022/04/01 02:36:50;;;;;;;51.57;30.90;;;;;;;4.23;100.00;96747.78;4951099;28;20687;-56
2022/04/01 02:39:18;;;;;;;56.60;32.27;;;;;;;4.23;100.00;96754.69;4971271;28;20197;-55
2022/04/01 02:41:45;;;;;;;54.90;31.50;;;;;;;4.18;100.00;96755.19;4990944;28;20201;-55
2022/04/01 02:44:13;;;;;;;58.23;32.47;;;;;;;4.21;100.00;96754.88;4992018;28;20198;-56
2022/04/01 02:46:43;;;;;;;58.53;32.37;;;;;;;4.15;100.00;96750.31;4991371;28;20201;-56
2022/04/01 02:49:12;;;;;;;61.30;34.27;;;;;;;4.13;100.00;96747.09;4992195;28;20209;-55
2022/04/01 02:51:56;;;;;;;61.77;35.33;;;;;;;4.07;100.00;96758.84;4990144;28;20197;-55
2022/04/01 02:54:23;;;;;;;60.63;33.67;;;;;;;4.09;100.00;96753.53;4990261;28;20197;-56
2022/04/01 02:56:52;;;;;;;58.73;33.03;;;;;;;4.06;100.00;96757.22;4990616;28;20657;-56
2022/04/01 02:59:19;;;;;;;55.57;31.73;;;;;;;4.08;100.00;96757.09;4990886;28;20288;-56
2022/04/01 03:01:46;;;;;;;60.90;33.60;;;;;;;4.03;100.00;96767.06;4990708;28;20691;-55
2022/04/01 03:04:14;;;;;;;56.53;31.80;;;;;;;4.07;100.00;96760.63;4990585;28;20189;-55
2022/04/01 03:06:53;;;;;;;60.10;33.63;;;;;;;4.07;100.00;96764.00;4990681;28;20197;-55
2022/04/01 03:09:22;;;;;;;59.37;33.53;;;;;;;4.08;100.00;96764.81;4990903;28;20224;-55
2022/04/01 03:12:01;;;;;;;60.23;32.77;;;;;;;4.02;100.00;96768.81;4990779;28;20286;-55
2022/04/01 03:14:48;;;;;;;65.07;36.33;;;;;;;4.04;100.00;96766.09;4991428;28;20236;-57
2022/04/01 03:17:34;;;;;;;62.17;34.17;;;;;;;3.95;100.00;96770.41;4991965;28;20732;-56
2022/04/01 03:20:13;;;;;;;62.00;33.67;;;;;;;3.97;100.00;96771.06;4989414;28;20254;-55
2022/04/01 03:22:42;;;;;;;62.50;34.80;;;;;;;3.93;100.00;96772.31;4990375;28;20214;-56
2022/04/01 03:25:15;;;;;;;56.83;32.63;;;;;;;3.99;100.00;96766.56;4991071;28;20214;-56
2022/04/01 03:28:02;;;;;;;59.73;33.90;;;;;;;3.92;100.00;96768.94;4991735;28;20303;-56
2022/04/01 03:30:30;;;;;;;57.30;32.07;;;;;;;3.90;100.00;96770.88;4989942;28;20221;-56
2022/04/01 03:32:57;;;;;;;58.03;33.07;;;;;;;3.78;100.00;96772.09;4990581;28;20191;-55
2022/04/01 03:35:26;;;;;;;59.07;32.73;;;;;;;3.77;100.00;96767.91;4990117;28;20189;-54
2022/04/01 03:37:53;;;;;;;60.93;34.80;;;;;;;3.78;100.00;96775.47;4990358;28;20213;-56
2022/04/01 03:40:22;;;;;;;60.40;33.77;;;;;;;3.77;100.00;96771.28;4990284;28;20212;-55
2022/04/01 03:42:51;;;;;;;65.33;34.93;;;;;;;3.77;100.00;96771.28;4989806;28;20194;-55
2022/04/01 03:45:19;;;;;;;58.30;31.53;;;;;;;3.77;100.00;96773.88;4989654;28;20281;-55
2022/04/01 03:48:18;;;;;;;63.77;32.23;;;;;;;3.79;100.00;96774.53;4989925;28;20226;-56
2022/04/01 03:50:51;;;;;;;59.00;32.67;;;;;;;3.76;100.00;96771.44;4989398;28;20216;-56
2022/04/01 03:53:23;;;;;;;58.20;32.30;;;;;;;3.70;100.00;96778.06;4989619;28;20191;-56
2022/04/01 03:55:52;;;;;;;56.53;31.53;;;;;;;3.77;100.00;96778.22;4990102;28;20177;-56
2022/04/01 03:58:51;;;;;;;55.70;30.73;;;;;;;3.74;100.00;96779.34;4991174;28;20213;-56
2022/04/01 04:01:38;;;;;;;54.87;31.17;;;;;;;3.75;100.00;96782.75;4991189;28;20298;-56
2022/04/01 04:04:06;;;;;;;51.60;29.20;;;;;;;3.78;100.00;96775.47;4989639;28;20201;-56
2022/04/01 04:06:34;;;;;;;53.47;28.67;;;;;;;3.79;100.00;96789.22;4990033;28;20682;-56
2022/04/01 04:09:02;;;;;;;52.23;27.33;;;;;;;3.80;100.00;96783.88;4989751;28;20590;-56
2022/04/01 04:11:31;;;;;;;49.37;26.10;;;;;;;3.79;100.00;96787.44;4989679;28;20346;-56
2022/04/01 04:14:18;;;;;;;50.97;26.70;;;;;;;3.80;100.00;96783.09;4989600;28;20691;-56
2022/04/01 04:16:47;;;;;;;45.07;24.80;;;;;;;3.80;100.00;96788.25;4989689;28;20673;-56
2022/04/01 04:19:29;;;;;;;40.33;22.20;;;;;;;3.81;100.00;96798.41;4989647;28;20196;-55
2022/04/01 04:22:08;;;;;;;45.67;23.87;;;;;;;3.78;100.00;96793.53;4989648;28;20185;-56
2022/04/01 04:24:43;;;;;;;39.87;21.83;;;;;;;3.76;100.00;96795.47;4989390;28;20193;-56
2022/04/01 04:27:15;;;;;;;37.47;20.10;;;;;;;3.78;100.00;96797.91;4987082;28;20275;-56
2022/04/01 04:29:48;;;;;;;49.53;24.93;;;;;;;3.76;100.00;96797.25;4988140;28;20209;-55
2022/04/01 04:32:34;;;;;;;76.33;44.83;;;;;;;3.78;100.00;96797.91;4986399;28;20557;-56
2022/04/01 04:35:04;;;;;;;36.73;20.67;;;;;;;3.64;100.00;96807.03;4989209;28;20193;-55
2022/04/01 04:37:37;;;;;;;40.87;22.70;;;;;;;3.76;100.00;96805.00;4989690;28;20213;-56
2022/04/01 04:40:06;;;;;;;38.03;19.47;;;;;;;3.74;100.00;96804.34;4989280;28;20195;-55
2022/04/01 04:42:36;;;;;;;37.90;20.37;;;;;;;3.74;100.00;96815.47;4989671;28;20189;-56
2022/04/01 04:45:04;;;;;;;38.17;19.70;;;;;;;3.69;100.00;96808.19;4989179;28;20708;-55
2022/04/01 04:47:34;;;;;;;33.97;19.67;;;;;;;3.68;100.00;96811.72;4989295;28;20250;-55
2022/04/01 04:50:02;;;;;;;35.23;19.73;;;;;;;3.62;100.00;96816.69;4988881;28;20240;-56
2022/04/01 04:52:34;;;;;;;37.77;19.77;;;;;;;3.51;100.00;96813.41;4989418;28;20182;-56
2022/04/01 04:55:03;;;;;;;41.87;22.80;;;;;;;3.56;100.00;96815.53;4989046;28;20198;-55
2022/04/01 04:57:40;;;;;;;39.23;21.47;;;;;;;3.60;100.00;96814.25;4989388;28;20217;-56
2022/04/01 05:00:08;;;;;;;35.97;18.83;;;;;;;3.54;100.00;96810.53;4989366;28;20789;-56
2022/04/01 05:03:19;;;;;;;38.83;20.07;;;;;;;3.40;100.00;96821.38;4989513;28;20693;-56
2022/04/01 05:05:49;;;;;;;39.17;20.07;;;;;;;3.49;100.00;96825.66;4987134;28;20202;-56
2022/04/01 05:08:37;;;;;;;40.40;20.60;;;;;;;3.45;100.00;96824.31;4993031;28;20632;-54
2022/04/01 05:11:16;;;;;;;40.40;21.50;;;;;;;3.45;100.00;96824.31;4994004;28;20307;-56
2022/04/01 05:13:58;;;;;;;40.23;22.17;;;;;;;3.51;100.00;96830.63;4993125;28;20195;-54
2022/04/01 05:16:32;;;;;;;43.70;22.40;;;;;;;3.48;100.00;96834.34;4991214;28;20205;-56
2022/04/01 05:19:05;;;;;;;41.40;21.47;;;;;;;3.49;100.00;96832.56;4986547;28;20217;-54
2022/04/01 05:21:41;;;;;;;38.43;22.57;;;;;;;3.50;100.00;96836.75;4991695;28;20240;-56
2022/04/01 05:24:14;;;;;;;37.97;21.50;;;;;;;3.54;100.00;96838.91;4992009;28;20200;-56
2022/04/01 05:26:52;;;;;;;35.63;20.33;;;;;;;3.47;100.00;96847.38;4992751;28;20328;-55
2022/04/01 05:29:43;;;;;;;38.00;21.13;;;;;;;3.47;100.00;96844.78;4989680;28;20213;-55
2022/04/01 05:32:13;;;;;;;40.83;21.60;;;;;;;3.54;100.00;96841.47;4992442;28;20193;-55
2022/04/01 05:34:44;;;;;;;38.63;21.43;;;;;;;3.52;100.00;96843.41;4992101;28;20204;-56
2022/04/01 05:37:14;;;;;;;41.03;22.03;;;;;;;3.50;100.00;96854.81;4992510;28;20300;-56
2022/04/01 05:39:46;;;;;;;45.57;23.40;;;;;;;3.48;100.00;96851.56;4992376;28;20373;-56
2022/04/01 05:42:18;;;;;;;42.47;24.37;;;;;;;3.48;100.00;96856.72;4992392;28;20280;-55
2022/04/01 05:45:06;;;;;;;40.73;22.43;;;;;;;3.53;100.00;96862.25;4993176;28;20205;-56
2022/04/01 05:47:36;;;;;;;41.17;22.60;;;;;;;3.53;100.00;96859.69;4992201;28;20228;-55
2022/04/01 05:50:03;;;;;;;38.27;21.63;;;;;;;3.50;100.00;96859.97;4992939;28;20220;-55
2022/04/01 05:52:36;;;;;;;44.23;24.47;;;;;;;3.51;100.00;96862.41;4991732;28;20665;-55
2022/04/01 05:55:03;;;;;;;42.47;22.73;;;;;;;3.51;100.00;96872.75;4991443;28;20216;-55
2022/04/01 05:57:31;;;;;;;39.50;22.07;;;;;;;3.52;100.00;96865.78;4992135;28;20210;-55
2022/04/01 05:59:58;;;;;;;43.30;23.23;;;;;;;3.53;100.00;96870.00;4991901;28;20195;-55
2022/04/01 06:02:44;;;;;;;42.00;26.52;;;;;;;3.51;99.52;96870.16;4991128;28;20431;-56
2022/04/01 06:05:18;;;;;;;38.50;22.43;;;;;;;3.44;99.53;96876.03;4990946;28;20616;-56
2022/04/01 06:07:51;;;;;;;40.73;22.43;;;;;;;3.59;100.00;96882.31;4991576;28;20279;-56
2022/04/01 06:10:27;;;;;;;39.17;22.17;;;;;;;3.60;100.00;96881.34;4987045;28;20225;-56
2022/04/01 06:13:36;;;;;;;38.90;22.97;;;;;;;3.53;100.00;96885.47;4993001;28;20185;-56
2022/04/01 06:16:28;;;;;;;41.33;23.07;;;;;;;3.55;100.00;96886.13;4992974;28;20336;-53
2022/04/01 06:19:23;;;;;;;40.63;23.17;;;;;;;3.53;100.00;96895.78;4991149;28;20198;-54
2022/04/01 06:22:03;;;;;;;41.37;22.53;;;;;;;3.60;100.00;96896.81;4991494;28;20716;-55
2022/04/01 06:24:45;;;;;;;45.27;22.67;;;;;;;3.63;100.00;96893.16;4991263;28;20565;-55
2022/04/01 06:27:15;;;;;;;42.40;23.77;;;;;;;3.66;100.00;96895.44;4991556;28;20228;-53
2022/04/01 06:29:44;;;;;;;44.07;23.43;;;;;;;3.69;100.00;96911.41;4991358;28;20300;-54
2022/04/01 06:32:15;;;;;;;41.53;23.37;;;;;;;3.56;100.00;96910.97;4991577;28;20574;-52
2022/04/01 06:34:55;;;;;;;43.10;25.10;;;;;;;3.61;100.00;96918.28;4990549;28;20198;-53
2022/04/01 06:37:56;;;;;;;40.90;23.63;;;;;;;3.64;100.00;96918.78;4991101;28;20219;-54
2022/04/01 06:40:27;;;;;;;48.30;29.17;;;;;;;3.56;100.00;96910.97;4992355;28;20669;-53
2022/04/01 06:42:54;;;;;;;46.83;24.87;;;;;;;3.56;100.00;96926.47;4991312;28;20219;-54
2022/04/01 06:45:50;;;;;;;42.93;24.60;;;;;;;3.61;100.00;96924.25;4989797;28;20192;-54
2022/04/01 06:48:35;;;;;;;42.63;24.53;;;;;;;3.57;100.00;96924.69;4992563;28;20224;-57
2022/04/01 06:51:22;;;;;;;41.40;24.00;;;;;;;3.50;100.00;96927.88;4988550;28;20220;-53
2022/04/01 06:54:08;;;;;;;45.03;25.00;;;;;;;3.49;100.00;96921.09;4990709;28;20213;-54
2022/04/01 06:56:53;;;;;;;47.30;25.60;;;;;;;3.45;100.00;96926.69;4991476;28;20282;-52
2022/04/01 06:59:20;;;;;;;49.73;26.20;;;;;;;3.36;100.00;96923.22;4990520;28;20775;-56
2022/04/01 07:01:47;;;;;;;91.73;53.30;;;;;;;3.27;100.00;96924.09;4991887;28;20213;-54
2022/04/01 07:04:14;;;;;;;44.73;24.07;;;;;;;3.17;100.00;96935.28;4991801;28;20654;-54
2022/04/01 07:06:42;;;;;;;43.00;24.87;;;;;;;3.26;100.00;96936.16;4992029;28;20195;-54
2022/04/01 07:09:09;;;;;;;39.37;23.50;;;;;;;3.28;100.00;96930.88;4992175;28;20669;-54
2022/04/01 07:11:36;;;;;;;39.47;22.70;;;;;;;3.21;100.00;96939.19;4992115;28;20220;-54
2022/04/01 07:14:02;;;;;;;38.43;23.50;;;;;;;3.13;98.85;96940.91;4992384;28;20236;-53
2022/04/01 07:16:29;;;;;;;49.20;28.03;;;;;;;3.20;100.00;96935.00;4993527;28;20192;-55
2022/04/01 07:18:56;;;;;;;42.97;25.70;;;;;;;3.25;100.00;96940.53;4994363;28;20318;-54
2022/04/01 07:21:23;;;;;;;36.87;22.33;;;;;;;3.18;99.79;96942.06;5000284;28;20185;-53
2022/04/01 07:23:52;;;;;;;43.00;24.23;;;;;;;3.29;99.30;96935.09;4993138;28;20197;-54
2022/04/01 07:26:19;;;;;;;39.70;23.73;;;;;;;3.27;98.69;96937.00;4999192;28;20240;-54
2022/04/01 07:28:46;;;;;;;51.83;29.57;;;;;;;3.18;96.29;96943.84;5000241;28;20217;-54
2022/04/01 07:33:59;;;;;;;38.03;22.07;;;;;;;3.19;96.96;96948.03;4976578;28;20227;-52
2022/04/01 07:36:26;;;;;;;43.03;24.03;;;;;;;3.20;95.92;96942.75;5001782;28;20185;-53
2022/04/01 07:38:54;;;;;;;54.20;30.67;;;;;;;3.00;96.28;96951.53;4999113;28;20205;-53
2022/04/01 07:41:21;;;;;;;38.13;23.83;;;;;;;3.01;97.57;96948.84;5001484;28;20194;-53
2022/04/01 07:43:48;;;;;;;37.23;21.77;;;;;;;2.94;97.58;96958.09;5003327;28;20193;-54
2022/04/01 07:46:15;;;;;;;43.50;24.47;;;;;;;2.78;96.30;96954.38;5001496;28;20192;-53
2022/04/01 07:48:41;;;;;;;40.10;23.27;;;;;;;2.88;96.72;96962.03;5000615;28;20723;-54
2022/04/01 07:51:09;;;;;;;38.53;22.63;;;;;;;2.93;97.17;96965.00;5000940;28;20224;-53
2022/04/01 07:53:36;;;;;;;97.27;58.40;;;;;;;2.95;98.44;96970.81;5000176;28;20198;-53
2022/04/01 07:56:05;;;;;;;47.73;29.37;;;;;;;3.04;99.49;96960.59;4997371;28;20193;-53
2022/04/01 07:58:31;;;;;;;63.73;36.53;;;;;;;3.11;98.20;96969.38;4996949;28;20231;-54
2022/04/01 08:00:59;;;;;;;38.97;22.77;;;;;;;3.17;98.80;96979.13;4983679;28;20749;-53
2022/04/01 08:03:25;;;;;;;35.00;20.43;;;;;;;3.14;99.43;96974.25;4987871;28;20196;-52
2022/04/01 08:05:52;;;;;;;32.60;20.63;;;;;;;3.17;99.64;96979.13;4990763;28;20203;-54
2022/04/01 08:08:20;;;;;;;35.70;21.73;;;;;;;3.21;97.76;96979.63;4991492;28;20578;-54
2022/04/01 08:10:47;;;;;;;35.63;21.20;;;;;;;3.20;96.40;96978.00;4990973;28;20709;-53
2022/04/01 08:13:15;;;;;;;34.37;21.80;;;;;;;3.14;98.15;96986.34;4991363;28;20218;-53
2022/04/01 08:15:42;;;;;;;30.60;19.27;;;;;;;3.13;96.77;96995.84;4990909;28;20187;-53
2022/04/01 08:18:09;;;;;;;35.90;20.90;;;;;;;3.16;96.34;96994.75;4991267;28;20261;-53
2022/04/01 08:20:36;;;;;;;33.77;20.80;;;;;;;3.25;97.14;96991.28;4984506;28;20212;-54
2022/04/01 08:23:03;;;;;;;33.73;20.30;;;;;;;3.21;94.68;96995.09;4989600;28;20205;-52
2022/04/01 08:25:29;;;;;;;125.60;87.23;;;;;;;3.00;95.62;96987.63;4992404;28;20215;-53
2022/04/01 08:27:56;;;;;;;34.13;20.60;;;;;;;2.85;96.53;96995.03;5000814;28;20229;-53
2022/04/01 08:30:24;;;;;;;32.67;20.23;;;;;;;2.95;97.80;97001.75;4990428;28;20215;-53
2022/04/01 08:32:51;;;;;;;34.03;20.60;;;;;;;3.01;97.93;97013.28;4991212;28;20185;-54
2022/04/01 08:35:18;;;;;;;34.83;20.73;;;;;;;2.98;98.33;97007.56;4990832;28;20207;-53
2022/04/01 08:37:45;;;;;;;36.67;21.67;;;;;;;3.06;98.34;97008.50;4991036;28;20209;-54
2022/04/01 08:40:12;;;;;;;35.47;21.33;;;;;;;3.01;95.29;97010.69;4990796;28;20187;-53
2022/04/01 08:42:46;;;;;;;34.20;19.87;;;;;;;2.94;97.75;97013.03;4992144;28;20542;-53
2022/04/01 08:45:13;;;;;;;34.17;21.60;;;;;;;3.00;99.36;97021.97;4994730;28;20195;-54
2022/04/01 08:47:41;;;;;;;36.30;21.13;;;;;;;3.07;99.57;97017.88;4996571;28;20240;-54
2022/04/01 08:50:09;;;;;;;33.23;20.43;;;;;;;3.13;99.38;97031.13;5014175;28;20207;-54
2022/04/01 08:52:36;;;;;;;35.80;21.87;;;;;;;3.18;99.20;97028.94;5014327;28;20240;-54
2022/04/01 08:55:05;;;;;;;37.17;21.30;;;;;;;3.30;99.89;97037.28;5013939;28;20204;-54
2022/04/01 08:57:36;;;;;;;36.33;21.73;;;;;;;3.23;98.34;97030.13;5014188;28;20212;-54
2022/04/01 09:00:24;;;;;;;29.90;18.10;;;;;;;3.16;97.83;97031.66;5014018;28;20679;-53
2022/04/01 09:03:01;;;;;;;28.10;17.60;;;;;;;3.12;97.77;97032.88;5014192;28;20201;-54
2022/04/01 09:05:28;;;;;;;31.53;18.77;;;;;;;3.12;95.98;97032.09;5013576;28;20190;-54
2022/04/01 09:08:00;;;;;;;31.07;19.30;;;;;;;3.18;94.00;97040.06;5000809;28;20292;-54
2022/04/01 09:10:27;;;;;;;29.63;16.53;;;;;;;3.00;93.54;97037.44;4994186;28;20204;-53
2022/04/01 09:12:54;;;;;;;29.53;18.53;;;;;;;3.02;95.50;97039.84;4994133;28;20193;-54
2022/04/01 09:15:21;;;;;;;30.00;18.07;;;;;;;3.10;94.57;97045.09;4993957;28;20232;-54
2022/04/01 09:17:49;;;;;;;29.13;16.87;;;;;;;3.03;94.00;97056.94;4994272;28;20205;-53
2022/04/01 09:20:18;;;;;;;29.93;16.33;;;;;;;2.92;94.96;97055.38;5001771;28;20192;-54
2022/04/01 09:22:45;;;;;;;29.93;17.50;;;;;;;3.11;95.06;97051.88;5006511;28;20192;-53
2022/04/01 09:25:14;;;;;;;31.53;16.80;;;;;;;2.98;94.73;97057.38;5004432;28;20196;-53
2022/04/01 09:27:46;;;;;;;27.83;17.80;;;;;;;3.07;94.74;97061.69;4999703;28;20227;-54
2022/04/01 09:30:16;;;;;;;31.10;18.87;;;;;;;3.11;95.28;97059.63;5004205;28;20189;-54
2022/04/01 09:32:45;;;;;;;30.03;17.83;;;;;;;3.14;94.79;97061.13;5003317;28;20197;-54
2022/04/01 09:35:13;;;;;;;29.30;17.30;;;;;;;3.20;93.80;97061.34;4996878;28;20200;-54
2022/04/01 09:37:43;;;;;;;29.23;17.00;;;;;;;3.01;93.24;97067.41;4993962;28;20236;-54
2022/04/01 09:40:12;;;;;;;27.70;16.67;;;;;;;3.25;93.04;97068.66;4995086;28;20190;-53
2022/04/01 09:42:39;;;;;;;25.63;15.77;;;;;;;3.28;93.09;97067.56;5002525;28;20186;-53
2022/04/01 09:45:07;;;;;;;25.07;15.73;;;;;;;3.23;92.06;97065.41;4999337;28;20183;-54
2022/04/01 09:47:38;;;;;;;166.07;64.60;;;;;;;3.12;93.01;97070.75;5003008;28;20292;-54
2022/04/01 09:50:14;;;;;;;314.33;111.93;;;;;;;3.15;94.78;97078.22;5003916;28;20181;-54
2022/04/01 09:52:42;;;;;;;30.87;18.53;;;;;;;3.24;92.86;97077.34;5004143;28;20195;-54
2022/04/01 09:55:10;;;;;;;67.23;52.33;;;;;;;3.18;92.26;97072.78;4999358;28;20213;-54
2022/04/01 09:57:37;;;;;;;29.20;18.27;;;;;;;3.27;93.51;97073.69;5001078;28;20209;-54
2022/04/01 10:00:06;;;;;;;29.53;18.07;;;;;;;3.21;93.34;97077.63;4997653;28;20185;-53
2022/04/01 10:02:39;;;;;;;32.73;21.73;;;;;;;3.23;91.93;97086.03;4993651;28;20185;-55
2022/04/01 10:05:07;;;;;;;28.53;16.70;;;;;;;3.18;94.53;97081.31;4993104;28;20183;-54
2022/04/01 10:07:35;;;;;;;28.13;18.37;;;;;;;3.18;92.77;97080.50;4993306;28;20201;-55
2022/04/01 10:10:06;;;;;;;25.73;15.53;;;;;;;3.31;92.59;97085.34;4993062;28;20185;-54
2022/04/01 10:12:41;;;;;;;27.03;16.33;;;;;;;3.29;93.26;97087.25;4993647;28;20307;-53
2022/04/01 10:15:10;;;;;;;23.50;15.10;;;;;;;3.34;90.92;97082.47;4992970;28;20192;-53
2022/04/01 10:17:39;;;;;;;28.13;16.20;;;;;;;3.04;93.94;97092.06;4993317;28;20234;-54
2022/04/01 10:20:08;;;;;;;26.17;14.97;;;;;;;2.91;92.57;97088.03;4993096;28;20260;-53
2022/04/01 10:22:35;;;;;;;25.43;15.47;;;;;;;3.19;93.66;97092.41;4993301;28;20678;-44
2022/04/01 10:25:11;;;;;;;30.43;18.23;;;;;;;3.12;94.88;97088.81;4992789;28;20185;-46
2022/04/01 10:27:40;;;;;;;26.90;16.03;;;;;;;3.48;100.00;97094.88;4993101;28;20216;-47
2022/04/01 10:30:09;;;;;;;25.13;14.70;;;;;;;3.16;93.85;97095.31;4992791;28;20181;-47
2022/04/01 10:32:41;;;;;;;24.93;15.97;;;;;;;3.34;93.62;97096.16;4995500;28;20212;-57
2022/04/01 10:35:10;;;;;;;30.47;19.23;;;;;;;3.42;93.40;97092.06;4999075;28;20179;-57
2022/04/01 10:37:37;;;;;;;35.37;22.20;;;;;;;3.28;91.98;97099.31;5001544;28;20211;-57
2022/04/01 10:40:15;;;;;;;25.20;15.00;;;;;;;3.16;91.62;97097.88;5001759;28;20196;-57
2022/04/01 10:42:42;;;;;;;26.03;16.10;;;;;;;3.32;93.10;97099.84;5003339;28;20187;-56
2022/04/01 10:45:23;;;;;;;37.87;24.60;;;;;;;3.32;92.59;97102.44;4993081;28;20202;-57
2022/04/01 10:53:53;;;;;;;24.43;13.90;;;;;;;3.25;91.88;97105.56;4992465;28;20614;-57
2022/04/01 10:56:37;;;;;;;22.97;14.63;;;;;;;2.78;94.12;97108.97;5004342;28;20206;-57
2022/04/01 10:59:10;;;;;;;28.30;16.33;;;;;;;2.89;96.18;97114.94;5012205;28;20183;-57
2022/04/01 11:01:39;;;;;;;24.83;15.37;;;;;;;3.00;95.31;97111.34;5011698;28;20189;-57
2022/04/01 11:04:27;;;;;;;24.37;15.17;;;;;;;3.15;92.94;97114.31;5011874;28;20185;-57
2022/04/01 11:06:55;;;;;;;23.00;14.23;;;;;;;3.06;92.58;97114.19;4990943;28;20254;-57
2022/04/01 11:09:37;;;;;;;23.37;14.70;;;;;;;3.27;93.08;97117.50;4992011;28;20196;-57
2022/04/01 11:12:27;;;;;;;21.87;13.60;;;;;;;2.95;94.69;97122.91;4991839;28;20201;-56
2022/04/01 11:15:21;;;;;;;43.53;25.87;;;;;;;3.08;94.95;97120.03;4991927;28;20193;-57
2022/04/01 11:18:02;;;;;;;25.40;15.47;;;;;;;3.29;95.55;97120.75;4992161;28;20296;-57
2022/04/01 11:20:32;;;;;;;21.33;13.83;;;;;;;3.58;93.40;97127.56;4988637;28;20193;-57
2022/04/01 11:23:01;;;;;;;22.83;13.63;;;;;;;3.53;92.02;97128.81;4991744;28;20182;-57
2022/04/01 11:25:58;;;;;;;20.97;13.00;;;;;;;3.78;91.10;97123.91;4992406;28;20188;-57
2022/04/01 11:28:29;;;;;;;21.60;13.93;;;;;;;3.89;89.62;97124.66;4972539;28;20695;-57
2022/04/01 11:31:08;;;;;;;20.10;12.70;;;;;;;3.99;88.14;97133.16;4972540;28;20202;-57
2022/04/01 11:33:35;;;;;;;20.27;12.57;;;;;;;4.01;88.49;97131.25;4989542;28;20197;-57
2022/04/01 11:36:03;;;;;;;19.60;13.10;;;;;;;4.19;87.48;97130.44;4991358;28;20192;-57
2022/04/01 11:38:30;;;;;;;27.67;15.27;;;;;;;3.60;90.74;97131.63;4991490;28;20214;-56
2022/04/01 11:41:00;;;;;;;21.90;13.13;;;;;;;4.08;90.52;97139.22;4991636;28;20190;-57
2022/04/01 11:43:29;;;;;;;16.17;11.17;;;;;;;3.60;90.54;97133.41;4991875;28;20720;-57
2022/04/01 11:45:58;;;;;;;18.70;12.87;;;;;;;3.98;90.56;97132.34;4991566;28;20242;-57
2022/04/01 11:48:28;;;;;;;17.90;11.23;;;;;;;4.05;87.21;97142.91;4991442;28;20701;-57
2022/04/01 11:50:57;;;;;;;16.43;10.53;;;;;;;4.42;87.97;97141.13;4991312;28;20192;-57
2022/04/01 11:53:26;;;;;;;17.53;11.40;;;;;;;4.06;84.82;97141.16;4991617;28;20185;-57
2022/04/01 11:55:54;;;;;;;14.73;10.60;;;;;;;4.35;84.40;97138.34;4991159;28;20244;-57
2022/04/01 11:58:21;;;;;;;18.07;11.63;;;;;;;4.64;85.00;97141.63;4991554;28;20292;-57